sensor_id;sensor_type;location;lat;lon;timestamp;P1;durP1;ratioP1;P2;durP2;ratioP2
44732;SDS011;30460;50.836;4.390;2023-02-02T06:32:43;14.07;;;3.50;;
44732;SDS011;30460;50.836;4.390;2023-02-02T06:35:10;11.63;;;3.47;;
44732;SDS011;30460;50.836;4.390;2023-02-02T06:37:36;17.33;;;3.70;;
44732;SDS011;30460;50.836;4.390;2023-02-02T06:40:04;14.73;;;3.10;;
44732;SDS011;30460;50.836;4.390;2023-02-02T06:42:30;11.60;;;3.30;;
44732;SDS011;30460;50.836;4.390;2023-02-02T06:44:56;14.97;;;3.23;;
44732;SDS011;30460;50.836;4.390;2023-02-02T06:47:22;17.10;;;3.87;;
44732;SDS011;30460;50.836;4.390;2023-02-02T06:49:48;10.37;;;3.20;;
44732;SDS011;30460;50.836;4.390;2023-02-02T06:52:14;12.33;;;3.30;;
44732;SDS011;30460;50.836;4.390;2023-02-02T06:54:40;14.27;;;4.10;;
44732;SDS011;30460;50.836;4.390;2023-02-02T06:57:06;15.03;;;3.67;;
44732;SDS011;30460;50.836;4.390;2023-02-02T06:59:33;13.63;;;3.30;;
44732;SDS011;30460;50.836;4.390;2023-02-02T07:01:59;13.70;;;3.40;;
44732;SDS011;30460;50.836;4.390;2023-02-02T07:04:25;12.80;;;3.40;;
44732;SDS011;30460;50.836;4.390;2023-02-02T07:06:51;14.33;;;3.53;;
44732;SDS011;30460;50.836;4.390;2023-02-02T07:09:18;18.13;;;3.63;;
44732;SDS011;30460;50.836;4.390;2023-02-02T07:11:44;15.50;;;3.40;;
44732;SDS011;30460;50.836;4.390;2023-02-02T07:14:10;13.40;;;3.77;;
44732;SDS011;30460;50.836;4.390;2023-02-02T07:16:37;11.37;;;3.70;;
44732;SDS011;30460;50.836;4.390;2023-02-02T07:19:03;18.53;;;3.63;;
44732;SDS011;30460;50.836;4.390;2023-02-02T07:21:30;12.60;;;3.97;;
44732;SDS011;30460;50.836;4.390;2023-02-02T07:24:02;19.37;;;3.80;;
44732;SDS011;30460;50.836;4.390;2023-02-02T07:26:29;13.23;;;3.70;;
44732;SDS011;30460;50.836;4.390;2023-02-02T07:28:57;13.20;;;3.33;;
44732;SDS011;30460;50.836;4.390;2023-02-02T07:31:24;13.83;;;4.87;;
44732;SDS011;30460;50.836;4.390;2023-02-02T07:33:55;15.07;;;3.90;;
44732;SDS011;30460;50.836;4.390;2023-02-02T07:36:31;13.73;;;3.53;;
44732;SDS011;30460;50.836;4.390;2023-02-02T07:39:05;13.80;;;3.53;;
44732;SDS011;30460;50.836;4.390;2023-02-02T07:41:33;13.77;;;2.90;;
44732;SDS011;30460;50.836;4.390;2023-02-02T07:44:02;12.30;;;3.47;;
44732;SDS011;30460;50.836;4.390;2023-02-02T07:46:39;10.30;;;3.33;;
44732;SDS011;30460;50.836;4.390;2023-02-02T07:49:11;12.17;;;3.37;;
44732;SDS011;30460;50.836;4.390;2023-02-02T07:51:52;15.87;;;3.70;;
44732;SDS011;30460;50.836;4.390;2023-02-02T07:54:20;12.63;;;3.50;;
44732;SDS011;30460;50.836;4.390;2023-02-02T07:56:57;13.77;;;3.70;;
44732;SDS011;30460;50.836;4.390;2023-02-02T07:59:45;12.63;;;3.50;;
44732;SDS011;30460;50.836;4.390;2023-02-02T08:05:17;7.47;;;3.00;;
44732;SDS011;30460;50.836;4.390;2023-02-02T08:07:43;13.50;;;3.20;;
44732;SDS011;30460;50.836;4.390;2023-02-02T08:13:02;13.03;;;3.50;;
44732;SDS011;30460;50.836;4.390;2023-02-02T08:15:28;8.73;;;3.00;;
44732;SDS011;30460;50.836;4.390;2023-02-02T08:17:55;10.17;;;3.00;;
44732;SDS011;30460;50.836;4.390;2023-02-02T08:20:23;12.23;;;2.97;;
44732;SDS011;30460;50.836;4.390;2023-02-02T08:22:49;11.40;;;3.30;;
44732;SDS011;30460;50.836;4.390;2023-02-02T08:25:15;14.30;;;3.50;;
44732;SDS011;30460;50.836;4.390;2023-02-02T08:27:46;13.47;;;3.47;;
44732;SDS011;30460;50.836;4.390;2023-02-02T08:30:31;12.73;;;3.50;;
44732;SDS011;30460;50.836;4.390;2023-02-02T08:33:21;9.97;;;3.20;;
44732;SDS011;30460;50.836;4.390;2023-02-02T08:35:49;8.13;;;3.03;;
44732;SDS011;30460;50.836;4.390;2023-02-02T08:41:20;15.17;;;3.07;;
44732;SDS011;30460;50.836;4.390;2023-02-02T08:43:47;11.30;;;3.37;;
44732;SDS011;30460;50.836;4.390;2023-02-02T08:46:14;9.97;;;3.50;;
44732;SDS011;30460;50.836;4.390;2023-02-02T08:48:53;12.03;;;3.20;;
44732;SDS011;30460;50.836;4.390;2023-02-02T08:51:20;10.80;;;3.43;;
44732;SDS011;30460;50.836;4.390;2023-02-02T08:53:48;9.27;;;3.40;;
44732;SDS011;30460;50.836;4.390;2023-02-02T08:56:16;11.27;;;3.17;;
44732;SDS011;30460;50.836;4.390;2023-02-02T08:58:45;10.83;;;3.53;;
44732;SDS011;30460;50.836;4.390;2023-02-02T09:01:21;15.17;;;3.30;;
44732;SDS011;30460;50.836;4.390;2023-02-02T09:03:58;11.90;;;3.30;;
44732;SDS011;30460;50.836;4.390;2023-02-02T09:06:28;11.80;;;3.40;;
44732;SDS011;30460;50.836;4.390;2023-02-02T09:08:57;13.07;;;2.97;;
44732;SDS011;30460;50.836;4.390;2023-02-02T09:11:26;10.93;;;3.10;;
44732;SDS011;30460;50.836;4.390;2023-02-02T09:13:55;10.93;;;3.50;;
44732;SDS011;30460;50.836;4.390;2023-02-02T09:16:22;13.20;;;3.30;;
44732;SDS011;30460;50.836;4.390;2023-02-02T09:18:59;13.87;;;3.50;;
44732;SDS011;30460;50.836;4.390;2023-02-02T09:21:25;11.70;;;3.20;;
44732;SDS011;30460;50.836;4.390;2023-02-02T09:24:05;13.37;;;3.83;;
44732;SDS011;30460;50.836;4.390;2023-02-02T09:26:32;10.33;;;3.53;;
44732;SDS011;30460;50.836;4.390;2023-02-02T09:29:02;14.20;;;3.17;;
44732;SDS011;30460;50.836;4.390;2023-02-02T09:31:38;9.60;;;2.50;;
44732;SDS011;30460;50.836;4.390;2023-02-02T09:34:08;11.30;;;3.13;;
44732;SDS011;30460;50.836;4.390;2023-02-02T09:36:35;10.97;;;3.23;;
44732;SDS011;30460;50.836;4.390;2023-02-02T09:39:02;12.63;;;3.17;;
44732;SDS011;30460;50.836;4.390;2023-02-02T09:51:19;17.10;;;3.73;;
44732;SDS011;30460;50.836;4.390;2023-02-02T09:53:57;9.43;;;2.80;;
44732;SDS011;30460;50.836;4.390;2023-02-02T09:56:27;8.43;;;2.63;;
44732;SDS011;30460;50.836;4.390;2023-02-02T09:58:54;11.03;;;3.07;;
44732;SDS011;30460;50.836;4.390;2023-02-02T10:01:23;12.90;;;3.53;;
44732;SDS011;30460;50.836;4.390;2023-02-02T10:09:14;8.60;;;3.10;;
44732;SDS011;30460;50.836;4.390;2023-02-02T10:11:50;12.17;;;6.57;;
44732;SDS011;30460;50.836;4.390;2023-02-02T10:14:22;7.27;;;2.77;;
44732;SDS011;30460;50.836;4.390;2023-02-02T10:16:50;11.73;;;3.87;;
44732;SDS011;30460;50.836;4.390;2023-02-02T10:19:18;7.00;;;2.40;;
44732;SDS011;30460;50.836;4.390;2023-02-02T10:24:17;10.47;;;3.30;;
44732;SDS011;30460;50.836;4.390;2023-02-02T10:26:45;11.83;;;3.43;;
44732;SDS011;30460;50.836;4.390;2023-02-02T10:29:17;9.60;;;3.43;;
44732;SDS011;30460;50.836;4.390;2023-02-02T10:34:34;11.90;;;3.07;;
44732;SDS011;30460;50.836;4.390;2023-02-02T10:40:12;13.03;;;3.20;;
44732;SDS011;30460;50.836;4.390;2023-02-02T10:44:48;10.60;;;3.40;;
44732;SDS011;30460;50.836;4.390;2023-02-02T10:47:20;15.33;;;3.90;;
44732;SDS011;30460;50.836;4.390;2023-02-02T10:49:47;11.23;;;2.80;;
44732;SDS011;30460;50.836;4.390;2023-02-02T10:52:16;11.93;;;3.13;;
44732;SDS011;30460;50.836;4.390;2023-02-02T10:54:49;11.57;;;3.00;;
44732;SDS011;30460;50.836;4.390;2023-02-02T10:57:18;10.87;;;2.90;;
44732;SDS011;30460;50.836;4.390;2023-02-02T10:59:55;9.73;;;3.10;;
44732;SDS011;30460;50.836;4.390;2023-02-02T11:02:23;11.77;;;3.00;;
44732;SDS011;30460;50.836;4.390;2023-02-02T11:04:49;9.40;;;3.03;;
44732;SDS011;30460;50.836;4.390;2023-02-02T11:07:35;9.03;;;2.80;;
44732;SDS011;30460;50.836;4.390;2023-02-02T11:10:01;12.17;;;3.20;;
44732;SDS011;30460;50.836;4.390;2023-02-02T11:12:32;8.03;;;2.77;;
44732;SDS011;30460;50.836;4.390;2023-02-02T11:15:00;10.70;;;3.03;;
44732;SDS011;30460;50.836;4.390;2023-02-02T11:17:26;7.43;;;2.60;;
44732;SDS011;30460;50.836;4.390;2023-02-02T11:19:53;11.63;;;2.50;;
44732;SDS011;30460;50.836;4.390;2023-02-02T11:22:32;8.50;;;3.03;;
44732;SDS011;30460;50.836;4.390;2023-02-02T11:25:00;11.30;;;3.10;;
44732;SDS011;30460;50.836;4.390;2023-02-02T11:27:31;8.67;;;2.80;;
44732;SDS011;30460;50.836;4.390;2023-02-02T11:29:58;12.37;;;3.37;;
44732;SDS011;30460;50.836;4.390;2023-02-02T11:32:29;12.17;;;2.90;;
44732;SDS011;30460;50.836;4.390;2023-02-02T11:38:13;9.47;;;3.53;;
44732;SDS011;30460;50.836;4.390;2023-02-02T11:42:53;12.07;;;3.30;;
44732;SDS011;30460;50.836;4.390;2023-02-02T11:48:01;8.07;;;2.90;;
44732;SDS011;30460;50.836;4.390;2023-02-02T11:50:28;7.77;;;2.83;;
44732;SDS011;30460;50.836;4.390;2023-02-02T11:52:55;8.93;;;3.13;;
44732;SDS011;30460;50.836;4.390;2023-02-02T11:55:24;10.50;;;2.70;;
44732;SDS011;30460;50.836;4.390;2023-02-02T12:00:48;12.57;;;3.87;;
44732;SDS011;30460;50.836;4.390;2023-02-02T12:03:25;8.40;;;3.40;;
44732;SDS011;30460;50.836;4.390;2023-02-02T12:05:51;11.03;;;3.13;;
44732;SDS011;30460;50.836;4.390;2023-02-02T12:08:17;13.33;;;3.27;;
44732;SDS011;30460;50.836;4.390;2023-02-02T12:10:53;7.37;;;3.07;;
44732;SDS011;30460;50.836;4.390;2023-02-02T12:15:53;11.53;;;3.67;;
44732;SDS011;30460;50.836;4.390;2023-02-02T12:20:59;10.23;;;2.70;;
44732;SDS011;30460;50.836;4.390;2023-02-02T12:33:29;10.77;;;4.60;;
44732;SDS011;30460;50.836;4.390;2023-02-02T12:38:30;8.80;;;2.83;;
44732;SDS011;30460;50.836;4.390;2023-02-02T12:43:40;6.13;;;2.60;;
44732;SDS011;30460;50.836;4.390;2023-02-02T12:56:50;6.57;;;2.73;;
44732;SDS011;30460;50.836;4.390;2023-02-02T13:07:43;11.60;;;3.13;;
44732;SDS011;30460;50.836;4.390;2023-02-02T13:12:46;7.87;;;3.00;;
44732;SDS011;30460;50.836;4.390;2023-02-02T13:15:18;6.43;;;2.60;;
44732;SDS011;30460;50.836;4.390;2023-02-02T13:17:59;8.43;;;2.80;;
44732;SDS011;30460;50.836;4.390;2023-02-02T13:22:53;8.40;;;3.33;;
44732;SDS011;30460;50.836;4.390;2023-02-02T13:25:22;6.90;;;2.97;;
44732;SDS011;30460;50.836;4.390;2023-02-02T13:27:49;10.80;;;3.30;;
44732;SDS011;30460;50.836;4.390;2023-02-02T13:30:30;5.73;;;2.43;;
44732;SDS011;30460;50.836;4.390;2023-02-02T13:33:05;8.17;;;2.67;;
44732;SDS011;30460;50.836;4.390;2023-02-02T13:35:33;8.17;;;2.40;;
44732;SDS011;30460;50.836;4.390;2023-02-02T13:38:11;6.53;;;3.17;;
44732;SDS011;30460;50.836;4.390;2023-02-02T13:40:39;9.03;;;2.90;;
44732;SDS011;30460;50.836;4.390;2023-02-02T13:45:56;7.33;;;2.57;;
44732;SDS011;30460;50.836;4.390;2023-02-02T14:01:07;7.90;;;2.27;;
44732;SDS011;30460;50.836;4.390;2023-02-02T14:03:35;8.23;;;2.50;;
44732;SDS011;30460;50.836;4.390;2023-02-02T14:08:33;5.03;;;2.07;;
44732;SDS011;30460;50.836;4.390;2023-02-02T14:11:00;3.40;;;1.80;;
44732;SDS011;30460;50.836;4.390;2023-02-02T14:16:22;6.00;;;2.30;;
44732;SDS011;30460;50.836;4.390;2023-02-02T14:39:23;5.13;;;2.80;;
44732;SDS011;30460;50.836;4.390;2023-02-02T14:41:57;8.37;;;2.53;;
44732;SDS011;30460;50.836;4.390;2023-02-02T14:45:03;5.90;;;2.57;;
44732;SDS011;30460;50.836;4.390;2023-02-02T14:47:49;9.00;;;2.40;;
44732;SDS011;30460;50.836;4.390;2023-02-02T14:50:17;10.50;;;2.73;;
44732;SDS011;30460;50.836;4.390;2023-02-02T14:52:54;10.73;;;4.40;;
44732;SDS011;30460;50.836;4.390;2023-02-02T14:55:20;8.50;;;2.97;;
44732;SDS011;30460;50.836;4.390;2023-02-02T14:57:58;7.00;;;2.73;;
44732;SDS011;30460;50.836;4.390;2023-02-02T15:00:43;6.50;;;2.50;;
44732;SDS011;30460;50.836;4.390;2023-02-02T15:06:34;9.30;;;3.17;;
44732;SDS011;30460;50.836;4.390;2023-02-02T15:17:03;10.33;;;3.50;;
44732;SDS011;30460;50.836;4.390;2023-02-02T15:37:46;8.37;;;3.10;;
44732;SDS011;30460;50.836;4.390;2023-02-02T15:58:50;7.87;;;3.10;;
44732;SDS011;30460;50.836;4.390;2023-02-02T16:01:17;7.23;;;3.13;;
44732;SDS011;30460;50.836;4.390;2023-02-02T16:04:07;9.53;;;3.07;;
44732;SDS011;30460;50.836;4.390;2023-02-02T16:06:31;7.13;;;2.77;;
44732;SDS011;30460;50.836;4.390;2023-02-02T16:09:01;8.50;;;3.67;;
44732;SDS011;30460;50.836;4.390;2023-02-02T16:11:50;9.47;;;4.27;;
44732;SDS011;30460;50.836;4.390;2023-02-02T16:14:16;9.13;;;3.63;;
44732;SDS011;30460;50.836;4.390;2023-02-02T16:16:42;8.87;;;3.50;;
44732;SDS011;30460;50.836;4.390;2023-02-02T16:24:48;8.93;;;3.30;;
44732;SDS011;30460;50.836;4.390;2023-02-02T16:27:23;7.17;;;3.20;;
44732;SDS011;30460;50.836;4.390;2023-02-02T16:29:50;12.10;;;3.20;;
44732;SDS011;30460;50.836;4.390;2023-02-02T16:32:35;8.93;;;3.27;;
44732;SDS011;30460;50.836;4.390;2023-02-02T16:35:03;8.73;;;3.07;;
44732;SDS011;30460;50.836;4.390;2023-02-02T16:37:33;4.97;;;3.00;;
44732;SDS011;30460;50.836;4.390;2023-02-02T16:42:45;7.67;;;2.90;;
44732;SDS011;30460;50.836;4.390;2023-02-02T16:45:33;10.07;;;3.43;;
44732;SDS011;30460;50.836;4.390;2023-02-02T16:50:44;9.57;;;3.40;;
44732;SDS011;30460;50.836;4.390;2023-02-02T16:53:19;9.40;;;3.70;;
44732;SDS011;30460;50.836;4.390;2023-02-02T16:55:47;8.80;;;3.37;;
44732;SDS011;30460;50.836;4.390;2023-02-02T16:58:14;8.40;;;3.57;;
44732;SDS011;30460;50.836;4.390;2023-02-02T17:00:50;8.23;;;3.50;;
44732;SDS011;30460;50.836;4.390;2023-02-02T17:03:21;10.03;;;3.90;;
44732;SDS011;30460;50.836;4.390;2023-02-02T17:05:56;9.93;;;3.57;;
44732;SDS011;30460;50.836;4.390;2023-02-02T17:08:42;10.53;;;4.03;;
44732;SDS011;30460;50.836;4.390;2023-02-02T17:11:24;10.67;;;3.13;;
44732;SDS011;30460;50.836;4.390;2023-02-02T17:13:51;5.33;;;3.73;;
44732;SDS011;30460;50.836;4.390;2023-02-02T17:16:19;10.40;;;3.70;;
44732;SDS011;30460;50.836;4.390;2023-02-02T17:18:46;5.37;;;3.47;;
44732;SDS011;30460;50.836;4.390;2023-02-02T17:21:13;8.00;;;4.00;;
44732;SDS011;30460;50.836;4.390;2023-02-02T17:23:40;10.13;;;4.07;;
44732;SDS011;30460;50.836;4.390;2023-02-02T17:26:06;11.20;;;4.43;;
44732;SDS011;30460;50.836;4.390;2023-02-02T17:28:33;6.67;;;3.73;;
44732;SDS011;30460;50.836;4.390;2023-02-02T17:31:08;10.30;;;3.83;;
44732;SDS011;30460;50.836;4.390;2023-02-02T17:33:35;10.20;;;4.20;;
44732;SDS011;30460;50.836;4.390;2023-02-02T17:36:01;8.73;;;4.53;;
44732;SDS011;30460;50.836;4.390;2023-02-02T17:38:28;8.87;;;4.30;;
44732;SDS011;30460;50.836;4.390;2023-02-02T17:40:54;9.50;;;4.47;;
44732;SDS011;30460;50.836;4.390;2023-02-02T17:43:21;8.90;;;4.53;;
44732;SDS011;30460;50.836;4.390;2023-02-02T17:45:47;8.80;;;3.90;;
44732;SDS011;30460;50.836;4.390;2023-02-02T17:48:14;8.37;;;4.10;;
44732;SDS011;30460;50.836;4.390;2023-02-02T17:50:40;10.47;;;3.97;;
44732;SDS011;30460;50.836;4.390;2023-02-02T17:53:15;9.03;;;4.30;;
44732;SDS011;30460;50.836;4.390;2023-02-02T17:55:42;7.20;;;4.27;;
44732;SDS011;30460;50.836;4.390;2023-02-02T17:58:08;10.87;;;4.67;;
44732;SDS011;30460;50.836;4.390;2023-02-02T18:00:35;10.27;;;4.60;;
44732;SDS011;30460;50.836;4.390;2023-02-02T18:03:11;8.63;;;4.23;;
44732;SDS011;30460;50.836;4.390;2023-02-02T18:05:40;8.93;;;4.27;;
44732;SDS011;30460;50.836;4.390;2023-02-02T18:08:09;9.80;;;4.57;;
44732;SDS011;30460;50.836;4.390;2023-02-02T18:10:35;10.57;;;4.40;;
44732;SDS011;30460;50.836;4.390;2023-02-02T18:13:04;10.70;;;4.70;;
44732;SDS011;30460;50.836;4.390;2023-02-02T18:15:31;10.13;;;4.40;;
44732;SDS011;30460;50.836;4.390;2023-02-02T18:18:00;10.53;;;5.00;;
44732;SDS011;30460;50.836;4.390;2023-02-02T18:20:26;8.80;;;6.10;;
44732;SDS011;30460;50.836;4.390;2023-02-02T18:22:52;12.50;;;5.60;;
44732;SDS011;30460;50.836;4.390;2023-02-02T18:25:18;9.23;;;4.50;;
44732;SDS011;30460;50.836;4.390;2023-02-02T18:27:45;13.17;;;5.47;;
44732;SDS011;30460;50.836;4.390;2023-02-02T18:30:13;10.37;;;5.40;;
44732;SDS011;30460;50.836;4.390;2023-02-02T18:32:39;9.20;;;4.63;;
44732;SDS011;30460;50.836;4.390;2023-02-02T18:35:09;10.13;;;5.13;;
44732;SDS011;30460;50.836;4.390;2023-02-02T18:37:36;8.27;;;4.60;;
44732;SDS011;30460;50.836;4.390;2023-02-02T18:40:04;9.03;;;5.03;;
44732;SDS011;30460;50.836;4.390;2023-02-02T18:42:32;10.10;;;4.73;;
44732;SDS011;30460;50.836;4.390;2023-02-02T18:45:00;9.63;;;5.00;;
44732;SDS011;30460;50.836;4.390;2023-02-02T18:47:28;13.93;;;5.10;;
44732;SDS011;30460;50.836;4.390;2023-02-02T18:49:54;9.70;;;4.63;;
44732;SDS011;30460;50.836;4.390;2023-02-02T18:52:20;9.30;;;4.83;;
44732;SDS011;30460;50.836;4.390;2023-02-02T18:54:47;11.60;;;5.27;;
44732;SDS011;30460;50.836;4.390;2023-02-02T18:57:18;7.63;;;4.37;;
44732;SDS011;30460;50.836;4.390;2023-02-02T18:59:53;8.40;;;4.60;;
44732;SDS011;30460;50.836;4.390;2023-02-02T19:04:49;7.83;;;4.53;;
44732;SDS011;30460;50.836;4.390;2023-02-02T19:07:34;10.97;;;4.67;;
44732;SDS011;30460;50.836;4.390;2023-02-02T19:10:18;12.63;;;4.80;;
44732;SDS011;30460;50.836;4.390;2023-02-02T19:12:52;12.93;;;4.67;;
44732;SDS011;30460;50.836;4.390;2023-02-02T19:15:19;9.80;;;4.83;;
44732;SDS011;30460;50.836;4.390;2023-02-02T19:17:46;8.60;;;4.13;;
44732;SDS011;30460;50.836;4.390;2023-02-02T19:20:22;11.07;;;4.57;;
44732;SDS011;30460;50.836;4.390;2023-02-02T19:22:49;15.90;;;4.80;;
44732;SDS011;30460;50.836;4.390;2023-02-02T19:25:17;8.23;;;4.60;;
44732;SDS011;30460;50.836;4.390;2023-02-02T19:27:46;11.27;;;4.97;;
44732;SDS011;30460;50.836;4.390;2023-02-02T19:30:19;9.40;;;4.13;;
44732;SDS011;30460;50.836;4.390;2023-02-02T19:32:45;7.50;;;4.07;;
44732;SDS011;30460;50.836;4.390;2023-02-02T19:35:17;9.93;;;4.53;;
44732;SDS011;30460;50.836;4.390;2023-02-02T19:37:43;12.40;;;4.50;;
44732;SDS011;30460;50.836;4.390;2023-02-02T19:40:17;8.80;;;4.47;;
44732;SDS011;30460;50.836;4.390;2023-02-02T19:42:47;8.53;;;4.47;;
44732;SDS011;30460;50.836;4.390;2023-02-02T19:45:35;10.57;;;5.40;;
44732;SDS011;30460;50.836;4.390;2023-02-02T19:48:05;13.40;;;4.73;;
44732;SDS011;30460;50.836;4.390;2023-02-02T19:50:37;10.60;;;4.53;;
44732;SDS011;30460;50.836;4.390;2023-02-02T19:53:40;12.67;;;4.63;;
44732;SDS011;30460;50.836;4.390;2023-02-02T19:56:00;9.97;;;4.50;;
44732;SDS011;30460;50.836;4.390;2023-02-02T19:58:33;9.07;;;4.97;;
44732;SDS011;30460;50.836;4.390;2023-02-02T20:01:06;10.53;;;5.20;;
44732;SDS011;30460;50.836;4.390;2023-02-02T20:03:40;11.37;;;4.37;;
44732;SDS011;30460;50.836;4.390;2023-02-02T20:06:10;12.87;;;7.20;;
44732;SDS011;30460;50.836;4.390;2023-02-02T20:08:38;13.07;;;6.10;;
44732;SDS011;30460;50.836;4.390;2023-02-02T20:11:21;15.37;;;7.03;;
44732;SDS011;30460;50.836;4.390;2023-02-02T20:13:59;11.93;;;4.50;;
44732;SDS011;30460;50.836;4.390;2023-02-02T20:16:33;10.33;;;4.53;;
44732;SDS011;30460;50.836;4.390;2023-02-02T20:19:00;11.17;;;4.57;;
44732;SDS011;30460;50.836;4.390;2023-02-02T20:21:43;12.20;;;4.10;;
44732;SDS011;30460;50.836;4.390;2023-02-02T20:24:33;11.23;;;4.00;;
44732;SDS011;30460;50.836;4.390;2023-02-02T20:26:57;9.63;;;4.27;;
44732;SDS011;30460;50.836;4.390;2023-02-02T20:29:26;9.47;;;4.80;;
44732;SDS011;30460;50.836;4.390;2023-02-02T20:31:54;16.70;;;5.00;;
44732;SDS011;30460;50.836;4.390;2023-02-02T20:36:46;10.27;;;3.43;;
44732;SDS011;30460;50.836;4.390;2023-02-02T20:42:02;10.43;;;3.83;;
44732;SDS011;30460;50.836;4.390;2023-02-02T20:44:55;10.90;;;4.07;;
44732;SDS011;30460;50.836;4.390;2023-02-02T20:47:22;8.63;;;3.27;;
44732;SDS011;30460;50.836;4.390;2023-02-02T20:49:48;12.60;;;3.70;;
44732;SDS011;30460;50.836;4.390;2023-02-02T20:52:15;11.00;;;3.60;;
44732;SDS011;30460;50.836;4.390;2023-02-02T20:54:48;10.23;;;4.20;;
44732;SDS011;30460;50.836;4.390;2023-02-02T20:57:15;8.23;;;3.23;;
44732;SDS011;30460;50.836;4.390;2023-02-02T20:59:41;15.23;;;3.93;;
44732;SDS011;30460;50.836;4.390;2023-02-02T21:02:07;11.47;;;4.60;;
44732;SDS011;30460;50.836;4.390;2023-02-02T21:04:38;5.20;;;3.13;;
44732;SDS011;30460;50.836;4.390;2023-02-02T21:07:12;7.37;;;3.10;;
44732;SDS011;30460;50.836;4.390;2023-02-02T21:09:38;6.93;;;3.60;;
44732;SDS011;30460;50.836;4.390;2023-02-02T21:12:05;10.53;;;3.50;;
44732;SDS011;30460;50.836;4.390;2023-02-02T21:14:31;11.67;;;3.70;;
